createdAt,value
2022-10-19T00:04:47.286Z,26.5
2022-10-19T00:09:47.208Z,26
2022-10-19T00:14:47.203Z,25.5
2022-10-19T00:19:47.173Z,26.5
2022-10-19T00:24:47.135Z,25.5
2022-10-19T00:29:47.135Z,24
2022-10-19T00:34:47.104Z,22.5
2022-10-19T00:39:47.091Z,22
2022-10-19T00:44:47.054Z,23.5
2022-10-19T00:49:47.041Z,25.5
2022-10-19T00:54:47.020Z,26
2022-10-19T00:59:46.998Z,26.5
2022-10-19T01:04:46.975Z,26.5
2022-10-19T01:09:46.950Z,26
2022-10-19T01:14:46.934Z,26
2022-10-19T01:19:46.913Z,26
2022-10-19T01:24:46.912Z,26
2022-10-19T01:29:46.871Z,27.5
2022-10-19T01:34:46.850Z,28.5
2022-10-19T01:39:46.830Z,29.5
2022-10-19T01:44:46.807Z,30
2022-10-19T01:49:46.789Z,30.5
2022-10-19T01:54:46.773Z,31
2022-10-19T01:59:46.764Z,31
2022-10-19T02:04:46.727Z,31
2022-10-19T02:09:46.712Z,31
2022-10-19T02:14:46.692Z,31
2022-10-19T02:19:46.686Z,31
2022-10-19T02:24:46.645Z,31
2022-10-19T02:29:46.629Z,30.5
2022-10-19T02:34:46.605Z,31
2022-10-19T02:39:46.586Z,30.5
2022-10-19T02:44:46.567Z,31
2022-10-19T02:49:46.547Z,30.5
2022-10-19T02:54:46.526Z,30.5
2022-10-19T02:59:46.525Z,30.5
2022-10-19T03:04:46.485Z,30.5
2022-10-19T03:09:46.466Z,30.5
2022-10-19T03:14:46.439Z,30.5
2022-10-19T03:19:46.473Z,31
2022-10-19T03:24:46.402Z,31
2022-10-19T03:29:46.381Z,30.5
2022-10-19T03:34:46.387Z,31
2022-10-19T03:39:46.348Z,31
2022-10-19T03:44:46.327Z,31
2022-10-19T03:49:46.296Z,31
2022-10-19T03:54:46.295Z,31.5
2022-10-19T03:59:46.262Z,31.5
2022-10-19T04:04:46.280Z,32
2022-10-19T04:09:46.218Z,32
2022-10-19T04:14:46.201Z,32
2022-10-19T04:19:46.181Z,32
2022-10-19T04:24:46.180Z,31.5
2022-10-19T04:29:46.137Z,32
2022-10-19T04:34:46.113Z,31.5
2022-10-19T04:39:46.094Z,31.5
2022-10-19T04:44:46.110Z,31.5
2022-10-19T04:49:46.052Z,32
2022-10-19T04:54:46.062Z,32
2022-10-19T04:59:46.012Z,31.5
2022-10-19T05:04:45.998Z,31.5
2022-10-19T05:09:45.975Z,31.5
2022-10-19T05:14:45.951Z,31
2022-10-19T05:24:45.916Z,31
2022-10-19T05:29:45.889Z,31.5
2022-10-19T05:34:45.868Z,31
2022-10-19T05:39:45.855Z,31
2022-10-19T05:44:45.953Z,30
2022-10-19T05:49:45.829Z,30
2022-10-19T05:54:45.793Z,30
2022-10-19T05:59:45.791Z,30
2022-10-19T06:04:45.756Z,30.5
2022-10-19T06:09:45.728Z,30.5
2022-10-19T06:14:45.773Z,30
2022-10-19T06:19:45.692Z,30
2022-10-19T06:24:45.675Z,29.5
2022-10-19T06:29:45.646Z,30
2022-10-19T06:34:45.626Z,30
2022-10-19T06:39:45.604Z,30
2022-10-19T06:44:45.918Z,29.5
2022-10-19T06:49:45.678Z,29.5
2022-10-19T06:54:45.582Z,29.5
2022-10-19T06:59:45.926Z,29
2022-10-19T07:04:45.649Z,29.5
2022-10-19T07:09:45.635Z,29.5
2022-10-19T07:14:45.497Z,29.5
2022-10-19T07:19:45.442Z,29
2022-10-19T07:24:45.431Z,29
2022-10-19T07:29:45.406Z,28.5
2022-10-19T07:34:45.408Z,29
2022-10-19T07:39:45.371Z,29
2022-10-19T07:44:45.343Z,28.5
2022-10-19T07:49:45.325Z,28.5
2022-10-19T07:54:45.299Z,28.5
2022-10-19T07:59:45.398Z,28
2022-10-19T08:04:45.261Z,28
2022-10-19T08:09:45.244Z,28
2022-10-19T08:14:45.224Z,28
2022-10-19T08:19:45.192Z,28
2022-10-19T08:24:45.211Z,28
2022-10-19T08:29:45.267Z,28
2022-10-19T08:34:45.164Z,27.5
2022-10-19T08:39:45.111Z,27.5
2022-10-19T08:44:45.089Z,27
2022-10-19T08:49:45.173Z,27
2022-10-19T08:54:45.053Z,27
2022-10-19T08:59:45.037Z,27
2022-10-19T09:04:45.009Z,27
2022-10-19T09:09:44.992Z,27
2022-10-19T09:14:44.970Z,26.5
2022-10-19T09:19:44.946Z,26.5
2022-10-19T09:24:44.935Z,26
2022-10-19T09:29:44.916Z,26
2022-10-19T09:34:44.906Z,25.5
2022-10-19T09:39:44.867Z,25.5
2022-10-19T09:44:44.854Z,25.5
2022-10-19T09:49:44.825Z,25
2022-10-19T09:54:44.798Z,25.5
2022-10-19T09:59:44.785Z,25.5
2022-10-19T10:04:44.768Z,25.5
2022-10-19T10:09:44.743Z,24.5
2022-10-19T10:14:44.719Z,24.5
2022-10-19T10:19:44.700Z,24
2022-10-19T10:24:44.677Z,23.5
2022-10-19T10:29:44.654Z,24.5
2022-10-19T10:34:44.630Z,24.5
2022-10-19T10:39:44.626Z,24.5
2022-10-19T10:44:44.594Z,25
2022-10-19T10:49:44.578Z,24.5
2022-10-19T10:54:44.554Z,24.5
2022-10-19T10:59:44.530Z,24.5
2022-10-19T11:04:44.617Z,24.5
2022-10-19T11:09:44.520Z,24.5
2022-10-19T11:14:44.473Z,24
2022-10-19T11:19:44.529Z,23.5
2022-10-19T11:24:44.426Z,23.5
2022-10-19T11:29:44.541Z,23
2022-10-19T11:34:44.389Z,23
2022-10-19T11:39:44.362Z,22
2022-10-19T11:44:44.354Z,21
2022-10-19T11:49:44.319Z,19
2022-10-19T11:54:44.300Z,18.5
2022-10-19T11:59:44.284Z,16
2022-10-19T12:04:44.259Z,15.5
2022-10-19T12:09:44.243Z,12.5
2022-10-19T12:14:44.213Z,7
2022-10-19T12:19:44.197Z,0
2022-10-19T12:29:44.166Z,0
2022-10-19T12:34:44.192Z,0
2022-10-19T12:39:44.104Z,0
2022-10-19T12:44:44.082Z,0
2022-10-19T12:49:44.068Z,0
2022-10-19T12:54:44.086Z,1.5
2022-10-19T12:59:44.032Z,2.5
2022-10-19T13:04:44.108Z,4.5
2022-10-19T13:09:44.112Z,4.5
2022-10-19T13:14:43.958Z,6.5
2022-10-19T13:19:44.025Z,6.5
2022-10-19T13:24:43.917Z,8.5
2022-10-19T13:29:43.923Z,9
2022-10-19T13:34:43.894Z,8
2022-10-19T13:39:43.855Z,7
2022-10-19T13:44:43.835Z,6
2022-10-19T13:49:43.810Z,10
2022-10-19T13:54:43.786Z,8.5
2022-10-19T13:59:43.780Z,7.5
2022-10-19T14:04:43.754Z,7
2022-10-19T14:09:43.726Z,8
2022-10-19T14:14:43.705Z,8.5
2022-10-19T14:19:43.678Z,7
2022-10-19T14:24:43.661Z,7.5
2022-10-19T14:34:43.612Z,9
2022-10-19T14:44:43.595Z,10
2022-10-19T14:54:50.546Z,8
2022-10-19T15:09:43.526Z,3.5
2022-10-19T15:24:43.469Z,1.5
2022-10-19T15:29:50.397Z,3
2022-10-19T15:39:50.394Z,5
2022-10-19T15:49:43.312Z,11
2022-10-19T16:04:43.378Z,11
2022-10-19T16:14:50.282Z,6
2022-10-19T16:19:43.238Z,6.5
2022-10-19T16:34:43.146Z,6.5
2022-10-19T16:39:43.092Z,7.5
2022-10-19T16:44:43.070Z,10
2022-10-19T16:49:43.057Z,12
2022-10-19T16:54:43.038Z,13
2022-10-19T16:59:43.005Z,13.5
2022-10-19T17:04:43.026Z,11.5
2022-10-19T17:09:42.968Z,8.5
2022-10-19T17:14:42.942Z,8
2022-10-19T17:19:42.923Z,8.5
2022-10-19T17:24:42.900Z,13.5
2022-10-19T17:29:42.888Z,16
2022-10-19T17:34:42.855Z,18
2022-10-19T17:39:42.834Z,20
2022-10-19T17:44:42.817Z,19.5
2022-10-19T17:49:42.794Z,20
2022-10-19T17:54:42.774Z,20.5
2022-10-19T17:59:42.756Z,21.5
2022-10-19T18:04:42.735Z,21
2022-10-19T18:09:42.710Z,20.5
2022-10-19T18:14:42.723Z,19
2022-10-19T18:19:42.671Z,18.5
2022-10-19T18:24:42.684Z,18.5
2022-10-19T18:29:42.630Z,20
2022-10-19T18:34:42.630Z,21
2022-10-19T18:39:42.626Z,22.5
2022-10-19T18:44:42.562Z,22
2022-10-19T18:49:42.545Z,22.5
2022-10-19T18:54:42.528Z,22.5
2022-10-19T18:59:42.502Z,22.5
2022-10-19T19:04:42.481Z,23
2022-10-19T19:09:42.519Z,23
2022-10-19T19:14:42.436Z,23.5
2022-10-19T19:19:42.419Z,24
2022-10-19T19:24:42.394Z,23
2022-10-19T19:29:42.376Z,23.5
2022-10-19T19:34:42.365Z,23.5
2022-10-19T19:39:42.338Z,24
2022-10-19T19:44:42.319Z,24
2022-10-19T19:49:42.297Z,23.5
2022-10-19T19:54:42.274Z,22
2022-10-19T19:59:42.255Z,23
2022-10-19T20:04:42.235Z,25.5
2022-10-19T20:09:42.216Z,26
2022-10-19T20:14:42.196Z,23
2022-10-19T20:19:42.197Z,22
2022-10-19T20:24:42.151Z,23
2022-10-19T20:29:42.134Z,24.5
2022-10-19T20:34:42.114Z,26
2022-10-19T20:39:42.121Z,27
2022-10-19T20:44:42.074Z,27
2022-10-19T20:49:42.046Z,26.5
2022-10-19T20:54:42.022Z,26.5
2022-10-19T20:59:42.011Z,26.5
2022-10-19T21:04:41.987Z,26
2022-10-19T21:09:41.971Z,26.5
2022-10-19T21:14:42.040Z,26.5
2022-10-19T21:19:41.926Z,27.5
2022-10-19T21:24:41.905Z,27
2022-10-19T21:29:41.908Z,27
2022-10-19T21:34:41.863Z,27
2022-10-19T21:39:41.847Z,26
2022-10-19T21:44:41.829Z,24.5
2022-10-19T21:49:41.812Z,24
2022-10-19T21:54:41.811Z,25.5
2022-10-19T21:59:41.771Z,26
2022-10-19T22:04:41.761Z,27
2022-10-19T22:09:41.725Z,27.5
2022-10-19T22:14:41.725Z,27
2022-10-19T22:19:41.685Z,27
2022-10-19T22:24:41.681Z,26.5
2022-10-19T22:29:41.640Z,27
2022-10-19T22:34:41.622Z,27
2022-10-19T22:39:41.601Z,27
2022-10-19T22:44:41.581Z,27.5
2022-10-19T22:49:41.572Z,27
2022-10-19T22:54:41.567Z,27
2022-10-19T22:59:41.522Z,26.5
2022-10-19T23:04:41.508Z,26.5
2022-10-19T23:09:41.474Z,27.5
2022-10-19T23:14:41.466Z,28
2022-10-19T23:19:41.451Z,28.5
2022-10-19T23:24:41.419Z,29
2022-10-19T23:29:41.416Z,28.5
2022-10-19T23:34:41.379Z,28.5
2022-10-19T23:39:41.353Z,29
2022-10-19T23:44:41.335Z,29
2022-10-19T23:49:41.336Z,30
2022-10-19T23:54:41.315Z,30.5
2022-10-19T23:59:41.274Z,30.5
